Time;durP1;ratioP1;P1;durP2;ratioP2;P2;SDS_P1;SDS_P2;PMS_P1;PMS_P2;Temp;Humidity;BMP_temperature;BMP_pressure;BME280_temperature;BME280_humidity;BME280_pressure;Samples;Min_cycle;Max_cycle;Signal;HPM_P1;HPM_P2
2023/09/26 00:00:07;;;;;;;7.32;4.50;;;;;;;13.88;100.00;101999.16;5067384;28;20136;-70
2023/09/26 00:02:35;;;;;;;6.38;4.32;;;;;;;13.81;100.00;101995.63;5070492;28;20037;-70
2023/09/26 00:05:03;;;;;;;5.97;4.10;;;;;;;13.78;100.00;101986.03;5054335;28;20049;-73
2023/09/26 00:07:28;;;;;;;6.68;4.18;;;;;;;13.75;100.00;101982.91;5054816;28;20039;-70
2023/09/26 00:09:53;;;;;;;7.07;4.13;;;;;;;13.75;100.00;101985.63;5071085;28;20523;-70
2023/09/26 00:12:19;;;;;;;7.47;4.00;;;;;;;13.72;100.00;101986.06;5072731;28;20020;-70
2023/09/26 00:14:44;;;;;;;4.72;3.88;;;;;;;13.73;100.00;101988.56;5072419;28;20472;-70
2023/09/26 00:17:09;;;;;;;4.70;4.20;;;;;;;13.69;100.00;101990.03;5072123;28;20029;-70
2023/09/26 00:19:34;;;;;;;5.82;3.95;;;;;;;13.64;100.00;101984.44;5070238;28;20120;-70
2023/09/26 00:22:00;;;;;;;5.28;4.00;;;;;;;13.63;100.00;101991.78;5039848;28;20077;-70
2023/09/26 00:24:28;;;;;;;5.25;3.97;;;;;;;13.59;100.00;101995.16;5070402;28;20081;-70
2023/09/26 00:26:53;;;;;;;11.77;4.13;;;;;;;13.59;100.00;101990.53;5051828;28;20028;-69
2023/09/26 00:29:18;;;;;;;5.95;4.40;;;;;;;13.49;100.00;101984.72;5054098;28;20387;-69
2023/09/26 00:31:43;;;;;;;6.40;4.20;;;;;;;13.45;100.00;101984.31;5072344;28;20024;-70
2023/09/26 00:34:10;;;;;;;5.65;4.05;;;;;;;13.50;100.00;101986.38;5072309;28;20035;-70
2023/09/26 00:36:35;;;;;;;7.22;4.15;;;;;;;13.44;100.00;101979.09;5072473;28;20024;-70
2023/09/26 00:39:01;;;;;;;6.90;4.13;;;;;;;13.44;100.00;101989.97;5071134;28;21642;-70
2023/09/26 00:41:26;;;;;;;8.32;4.00;;;;;;;13.42;100.00;101989.34;5071838;28;20029;-70
2023/09/26 00:43:51;;;;;;;8.35;4.57;;;;;;;13.44;100.00;101987.25;5071913;28;20094;-70
2023/09/26 00:46:18;;;;;;;6.35;4.38;;;;;;;13.36;100.00;101987.50;5059741;28;20031;-71
2023/09/26 00:48:43;;;;;;;7.65;4.28;;;;;;;13.40;100.00;101983.28;5051697;28;20557;-71
2023/09/26 00:51:09;;;;;;;4.75;3.90;;;;;;;13.35;100.00;101986.66;5068480;28;20028;-71
2023/09/26 00:53:39;;;;;;;7.00;4.47;;;;;;;13.32;100.00;101986.25;5054177;28;20112;-71
2023/09/26 00:56:05;;;;;;;6.35;4.20;;;;;;;13.27;100.00;101978.69;5071738;28;20074;-71
2023/09/26 00:58:33;;;;;;;6.65;4.28;;;;;;;13.27;100.00;101982.28;5072339;28;20028;-71
2023/09/26 01:00:58;;;;;;;6.40;3.95;;;;;;;13.29;100.00;101973.91;5068457;28;20094;-71
2023/09/26 01:03:23;;;;;;;5.15;3.92;;;;;;;13.33;100.00;101979.72;5072262;28;20028;-71
2023/09/26 01:05:49;;;;;;;6.43;4.15;;;;;;;13.29;100.00;101977.44;5071273;28;20049;-71
2023/09/26 01:08:15;;;;;;;5.70;4.40;;;;;;;13.24;100.00;101973.69;5070391;28;20028;-70
2023/09/26 01:10:40;;;;;;;6.07;4.13;;;;;;;13.26;100.00;101975.16;5070653;28;20399;-71
2023/09/26 01:13:06;;;;;;;6.15;4.10;;;;;;;13.26;100.00;101967.00;5036062;28;20434;-71
2023/09/26 01:15:36;;;;;;;6.40;3.95;;;;;;;13.20;100.00;101973.31;5052097;28;20052;-71
2023/09/26 01:18:01;;;;;;;6.03;4.05;;;;;;;13.18;100.00;101964.53;5051900;28;20021;-71
2023/09/26 01:20:28;;;;;;;9.52;4.13;;;;;;;13.20;100.00;101970.59;5057777;28;20499;-71
2023/09/26 01:22:55;;;;;;;7.47;4.30;;;;;;;13.17;100.00;101971.03;5051760;28;20052;-71
2023/09/26 01:25:20;;;;;;;5.30;3.72;;;;;;;13.18;100.00;101975.41;5037959;28;20021;-71
2023/09/26 01:27:46;;;;;;;4.18;3.75;;;;;;;13.20;100.00;101975.19;5063036;28;20509;-71
2023/09/26 01:30:12;;;;;;;7.28;4.43;;;;;;;13.20;100.00;101981.47;5033275;28;20064;-71
2023/09/26 01:32:37;;;;;;;7.93;4.13;;;;;;;13.15;100.00;101986.72;5054300;28;20063;-71
2023/09/26 01:35:04;;;;;;;5.75;4.32;;;;;;;13.15;100.00;101978.56;5037539;28;20610;-71
2023/09/26 01:37:29;;;;;;;5.07;4.30;;;;;;;13.16;100.00;101977.50;5055436;28;20049;-70
2023/09/26 01:39:54;;;;;;;6.00;4.20;;;;;;;13.18;100.00;101978.13;5060132;28;20509;-70
2023/09/26 01:42:20;;;;;;;5.38;4.03;;;;;;;13.18;100.00;101977.28;5075588;28;20031;-70
2023/09/26 01:44:45;;;;;;;6.13;4.40;;;;;;;13.16;100.00;101974.78;5075475;28;20031;-70
2023/09/26 01:47:21;;;;;;;5.85;4.43;;;;;;;13.16;100.00;101982.09;5055111;28;20144;-70
2023/09/26 01:49:46;;;;;;;5.03;4.22;;;;;;;13.17;100.00;101975.63;5059168;28;20074;-70
2023/09/26 01:52:12;;;;;;;6.85;4.38;;;;;;;13.12;100.00;101968.13;5075237;28;20040;-70
2023/09/26 01:54:37;;;;;;;6.43;3.95;;;;;;;13.08;100.00;101973.13;5075341;28;20025;-70
2023/09/26 01:57:02;;;;;;;5.45;4.05;;;;;;;13.04;100.00;101965.63;5074785;28;20111;-70
2023/09/26 01:59:28;;;;;;;5.18;4.30;;;;;;;13.01;100.00;101969.59;5073727;28;20035;-70
2023/09/26 02:01:53;;;;;;;6.20;4.28;;;;;;;12.99;100.00;101965.44;5072893;28;20575;-70
2023/09/26 02:04:18;;;;;;;5.57;4.30;;;;;;;12.98;100.00;101967.31;5074980;28;20047;-70
2023/09/26 02:06:43;;;;;;;7.20;4.47;;;;;;;12.99;100.00;101957.28;5074073;28;20040;-70
2023/09/26 02:09:09;;;;;;;6.25;4.35;;;;;;;12.99;100.00;101965.44;5075116;28;20040;-70
2023/09/26 02:11:34;;;;;;;6.85;4.65;;;;;;;12.96;100.00;101960.44;5073818;28;20020;-70
2023/09/26 02:13:59;;;;;;;5.50;4.22;;;;;;;12.93;100.00;101954.38;5065737;28;20029;-70
2023/09/26 02:16:25;;;;;;;6.25;4.47;;;;;;;12.97;100.00;101954.78;5053760;28;20032;-70
2023/09/26 02:18:50;;;;;;;6.40;4.35;;;;;;;12.93;100.00;101957.09;5037055;28;20392;-70
2023/09/26 02:21:16;;;;;;;7.60;4.80;;;;;;;12.85;100.00;101953.78;5054673;28;20029;-70
2023/09/26 02:23:42;;;;;;;6.30;4.40;;;;;;;12.89;100.00;101952.28;5058101;28;20028;-70
2023/09/26 02:26:07;;;;;;;5.57;4.40;;;;;;;12.93;100.00;101948.13;5074294;28;20036;-70
2023/09/26 02:28:32;;;;;;;5.32;4.40;;;;;;;12.87;100.00;101947.06;5056694;28;20032;-70
2023/09/26 02:30:58;;;;;;;6.00;4.30;;;;;;;12.92;100.00;101947.28;5056479;28;20115;-70
2023/09/26 02:33:23;;;;;;;7.93;4.50;;;;;;;12.94;100.00;101955.22;5072345;28;20025;-70
2023/09/26 02:35:49;;;;;;;6.53;4.40;;;;;;;12.78;100.00;101956.50;5074852;28;20039;-69
2023/09/26 02:38:14;;;;;;;5.95;4.57;;;;;;;12.86;100.00;101953.56;5074226;28;20032;-70
2023/09/26 02:40:39;;;;;;;8.10;4.90;;;;;;;12.84;100.00;101952.09;5074245;28;20482;-70
2023/09/26 02:43:05;;;;;;;5.65;4.85;;;;;;;12.83;100.00;101945.00;5073106;28;20385;-70
2023/09/26 02:45:31;;;;;;;6.07;4.45;;;;;;;12.76;100.00;101943.13;5073188;28;20039;-69
2023/09/26 02:47:56;;;;;;;6.68;4.60;;;;;;;12.85;100.00;101937.50;5056374;28;20055;-69
2023/09/26 02:50:23;;;;;;;5.18;3.50;;;;;;;13.02;100.00;101929.69;5074146;28;20028;-70
2023/09/26 02:52:49;;;;;;;7.20;4.70;;;;;;;12.82;100.00;101936.03;5074385;28;20067;-69
2023/09/26 02:55:14;;;;;;;5.43;4.32;;;;;;;12.80;100.00;101926.41;5072074;28;20450;-70
2023/09/26 02:57:39;;;;;;;6.78;4.50;;;;;;;12.81;100.00;101928.91;5071808;28;20036;-69
2023/09/26 03:00:19;;;;;;;7.53;4.30;;;;;;;12.78;100.00;101923.91;5074099;28;20025;-70
2023/09/26 03:02:45;;;;;;;5.57;4.03;;;;;;;12.80;100.00;101921.81;5072493;28;20044;-70
2023/09/26 03:05:11;;;;;;;7.03;4.13;;;;;;;12.79;100.00;101912.00;5073459;28;20053;-70
2023/09/26 03:07:38;;;;;;;5.88;4.35;;;;;;;12.75;100.00;101918.91;5072782;28;20111;-70
2023/09/26 03:10:04;;;;;;;6.15;4.05;;;;;;;12.78;100.00;101913.06;5058615;28;20028;-70
2023/09/26 03:12:30;;;;;;;6.22;4.22;;;;;;;12.73;100.00;101907.44;5053845;28;20029;-70
2023/09/26 03:14:56;;;;;;;6.60;4.55;;;;;;;12.71;100.00;101912.22;5035902;28;20047;-70
2023/09/26 03:17:21;;;;;;;7.75;4.90;;;;;;;12.70;100.00;101916.00;5053486;28;20025;-70
2023/09/26 03:19:47;;;;;;;7.72;4.90;;;;;;;12.72;100.00;101917.44;5053983;28;20032;-70
2023/09/26 03:22:12;;;;;;;5.47;4.70;;;;;;;12.77;100.00;101916.81;5073732;28;20357;-71
2023/09/26 03:24:37;;;;;;;8.15;4.90;;;;;;;12.76;100.00;101907.81;5073678;28;20111;-71
2023/09/26 03:27:03;;;;;;;5.35;4.70;;;;;;;12.71;100.00;101913.09;5073481;28;20024;-71
2023/09/26 03:29:28;;;;;;;6.90;4.85;;;;;;;12.71;100.00;101906.78;5073336;28;20077;-71
2023/09/26 03:31:53;;;;;;;6.13;4.30;;;;;;;12.70;100.00;101907.88;5048293;28;20028;-71
2023/09/26 03:34:18;;;;;;;6.57;4.40;;;;;;;12.68;100.00;101905.38;5053260;28;20025;-71
2023/09/26 03:36:44;;;;;;;5.00;4.50;;;;;;;12.62;100.00;101919.78;5053400;28;20025;-70
2023/09/26 03:39:09;;;;;;;7.72;4.72;;;;;;;12.53;100.00;101916.47;5052724;28;20028;-71
2023/09/26 03:41:34;;;;;;;6.43;4.78;;;;;;;12.52;100.00;101908.53;5034672;28;20112;-71
2023/09/26 03:44:00;;;;;;;5.93;3.75;;;;;;;12.73;100.00;101910.16;5051890;28;20035;-71
2023/09/26 03:46:25;;;;;;;6.97;4.50;;;;;;;12.57;100.00;101914.16;5052941;28;20032;-70
2023/09/26 03:48:51;;;;;;;5.68;4.47;;;;;;;12.57;100.00;101904.09;5052169;28;20036;-71
2023/09/26 03:51:16;;;;;;;6.25;4.60;;;;;;;12.51;100.00;101915.81;5072693;28;20036;-71
2023/09/26 03:53:43;;;;;;;6.95;4.90;;;;;;;12.53;100.00;101910.19;5054883;28;20380;-70
2023/09/26 03:56:08;;;;;;;6.40;4.93;;;;;;;12.50;100.00;101905.16;5054815;28;20559;-70
2023/09/26 03:58:35;;;;;;;6.90;5.00;;;;;;;12.44;100.00;101901.44;5072629;28;20111;-70
2023/09/26 04:01:15;;;;;;;7.40;4.07;;;;;;;12.66;100.00;101895.75;5068603;28;20052;-71
2023/09/26 04:03:42;;;;;;;6.40;5.05;;;;;;;12.47;100.00;101897.44;5072968;28;20382;-71
2023/09/26 04:06:09;;;;;;;6.05;4.47;;;;;;;12.43;100.00;101904.38;5072672;28;20484;-71
2023/09/26 04:08:34;;;;;;;8.20;3.95;;;;;;;12.61;100.00;101909.16;5072840;28;20036;-70
2023/09/26 04:11:00;;;;;;;7.35;4.88;;;;;;;12.41;100.00;101902.69;5061159;28;20083;-70
2023/09/26 04:13:25;;;;;;;7.28;4.90;;;;;;;12.44;100.00;101906.03;5071772;28;20387;-71
2023/09/26 04:15:52;;;;;;;5.18;4.53;;;;;;;12.33;100.00;101902.06;5072800;28;20060;-70
2023/09/26 04:18:17;;;;;;;7.47;4.75;;;;;;;12.30;100.00;101899.78;5072425;28;20054;-71
2023/09/26 04:20:44;;;;;;;5.70;4.68;;;;;;;12.25;100.00;101891.44;5070693;28;20527;-71
2023/09/26 04:23:10;;;;;;;8.82;4.55;;;;;;;12.28;100.00;101888.31;5072421;28;20089;-71
2023/09/26 04:25:35;;;;;;;7.45;4.78;;;;;;;12.27;100.00;101886.63;5072671;28;20384;-71
2023/09/26 04:28:01;;;;;;;8.05;4.65;;;;;;;12.24;100.00;101887.88;5072560;28;20029;-71
2023/09/26 04:30:26;;;;;;;9.07;4.82;;;;;;;12.26;100.00;101876.81;5058092;28;20029;-70
2023/09/26 04:32:51;;;;;;;6.45;5.40;;;;;;;12.20;100.00;101867.66;5061847;28;20052;-70
2023/09/26 04:35:18;;;;;;;7.60;5.00;;;;;;;12.31;100.00;101874.31;5072056;28;20036;-71
2023/09/26 04:37:43;;;;;;;5.43;3.92;;;;;;;12.46;100.00;101877.63;5054346;28;20383;-71
2023/09/26 04:40:11;;;;;;;6.55;4.90;;;;;;;12.20;100.00;101871.19;5059096;28;20032;-71
2023/09/26 04:42:41;;;;;;;6.05;4.78;;;;;;;12.26;100.00;101879.53;5052364;28;20057;-71
2023/09/26 04:45:08;;;;;;;8.32;4.40;;;;;;;12.45;100.00;101878.66;5052152;28;20111;-71
2023/09/26 04:47:34;;;;;;;8.48;4.70;;;;;;;12.49;100.00;101863.63;5052340;28;20079;-69
2023/09/26 04:49:59;;;;;;;7.80;6.15;;;;;;;12.38;100.00;101867.84;5059992;28;20418;-70
2023/09/26 04:52:24;;;;;;;9.25;7.03;;;;;;;12.39;100.00;101865.94;5072163;28;20408;-70
2023/09/26 04:54:51;;;;;;;10.57;7.30;;;;;;;12.41;100.00;101863.88;5072345;28;20526;-70
2023/09/26 04:57:16;;;;;;;11.40;7.47;;;;;;;12.44;100.00;101860.72;5072078;28;20028;-70
2023/09/26 04:59:41;;;;;;;9.88;6.97;;;;;;;12.44;100.00;101858.00;5071139;28;20460;-71
2023/09/26 05:02:07;;;;;;;10.80;6.93;;;;;;;12.47;100.00;101863.00;5052056;28;20469;-71
2023/09/26 05:04:32;;;;;;;9.07;7.10;;;;;;;12.50;100.00;101861.72;5071790;28;20079;-70
2023/09/26 05:06:57;;;;;;;9.52;6.00;;;;;;;12.65;100.00;101873.19;5074952;28;20107;-70
2023/09/26 05:09:23;;;;;;;11.25;7.68;;;;;;;12.53;100.00;101866.72;5073052;28;20109;-69
2023/09/26 05:11:48;;;;;;;13.98;7.95;;;;;;;12.52;100.00;101870.53;5058244;28;20029;-70
2023/09/26 05:14:13;;;;;;;11.50;6.18;;;;;;;12.69;100.00;101869.00;5057958;28;20028;-71
2023/09/26 05:16:39;;;;;;;17.95;7.97;;;;;;;12.57;100.00;101857.94;5076364;28;20028;-71
2023/09/26 05:19:04;;;;;;;12.60;7.85;;;;;;;12.57;100.00;101857.13;5075133;28;20041;-71
2023/09/26 05:21:29;;;;;;;12.75;8.40;;;;;;;12.55;100.00;101856.50;5075816;28;20036;-70
2023/09/26 05:23:57;;;;;;;14.32;8.48;;;;;;;12.53;100.00;101862.16;5076216;28;20028;-71
2023/09/26 05:26:22;;;;;;;11.25;8.02;;;;;;;12.51;100.00;101861.53;5075712;28;20472;-70
2023/09/26 05:28:48;;;;;;;13.70;7.82;;;;;;;12.52;100.00;101859.66;5075605;28;20044;-70
2023/09/26 05:31:13;;;;;;;11.15;8.23;;;;;;;12.54;100.00;101860.28;5068530;28;20025;-70
2023/09/26 05:33:39;;;;;;;12.35;8.00;;;;;;;12.44;100.00;101858.00;5061917;28;20108;-71
2023/09/26 05:36:05;;;;;;;11.48;6.40;;;;;;;12.66;100.00;101868.59;5060281;28;20037;-71
2023/09/26 05:38:30;;;;;;;13.65;8.10;;;;;;;12.52;100.00;101863.19;5055524;28;20075;-70
2023/09/26 05:40:55;;;;;;;10.30;7.68;;;;;;;12.54;100.00;101863.81;5068703;28;20086;-71
2023/09/26 05:43:21;;;;;;;12.20;8.20;;;;;;;12.52;100.00;101868.63;5075353;28;20353;-71
2023/09/26 05:45:51;;;;;;;12.25;7.93;;;;;;;12.49;100.00;101868.22;5075549;28;20123;-71
2023/09/26 05:48:17;;;;;;;13.45;7.90;;;;;;;12.45;100.00;101881.38;5075297;28;20035;-71
2023/09/26 05:50:43;;;;;;;12.20;7.30;;;;;;;12.51;100.00;101874.28;5072102;28;20498;-71
2023/09/26 05:53:08;;;;;;;10.93;7.22;;;;;;;12.53;100.00;101874.88;5074276;28;20064;-71
2023/09/26 05:55:33;;;;;;;14.88;7.63;;;;;;;12.47;100.00;101873.88;5057205;28;20025;-71
2023/09/26 05:57:59;;;;;;;11.95;7.47;;;;;;;12.51;100.00;101879.69;5075653;28;20032;-70
2023/09/26 06:00:24;;;;;;;11.52;7.50;;;;;;;12.56;100.00;101880.75;5063852;28;20028;-70
2023/09/26 06:02:51;;;;;;;8.70;7.15;;;;;;;12.62;100.00;101875.50;5054934;28;20036;-70
2023/09/26 06:05:16;;;;;;;12.45;7.88;;;;;;;12.67;100.00;101873.81;5055005;28;20052;-70
2023/09/26 06:07:42;;;;;;;12.25;7.32;;;;;;;12.70;100.00;101869.84;5055450;28;20533;-71
2023/09/26 06:10:10;;;;;;;11.30;5.90;;;;;;;12.85;100.00;101870.41;5063220;28;20038;-70
2023/09/26 06:12:39;;;;;;;10.77;7.35;;;;;;;12.80;100.00;101867.47;5057118;28;20021;-71
2023/09/26 06:15:09;;;;;;;11.82;8.00;;;;;;;12.80;100.00;101872.91;5057081;28;20032;-70
2023/09/26 06:17:34;;;;;;;14.75;7.93;;;;;;;12.89;100.00;101871.66;5074436;28;20025;-69
2023/09/26 06:20:00;;;;;;;10.10;6.38;;;;;;;13.05;100.00;101870.31;5073803;28;20433;-70
2023/09/26 06:22:25;;;;;;;12.02;8.48;;;;;;;12.92;100.00;101870.38;5075672;28;20024;-70
2023/09/26 06:24:51;;;;;;;12.45;7.65;;;;;;;13.00;100.00;101858.41;5057829;28;20024;-69
2023/09/26 06:27:16;;;;;;;12.38;7.68;;;;;;;13.06;100.00;101854.84;5074840;28;20067;-70
2023/09/26 06:29:41;;;;;;;10.65;6.93;;;;;;;13.03;100.00;101852.53;5072548;28;20117;-70
2023/09/26 06:32:07;;;;;;;11.32;6.90;;;;;;;13.05;100.00;101851.28;5074371;28;20387;-69
2023/09/26 06:34:35;;;;;;;14.10;5.50;;;;;;;13.22;100.00;101843.44;5074118;28;20487;-70
2023/09/26 06:37:01;;;;;;;12.75;7.05;;;;;;;13.10;100.00;101856.06;5063796;28;20029;-70
2023/09/26 06:39:26;;;;;;;10.90;7.18;;;;;;;13.16;100.00;101860.63;5070654;28;20035;-70
2023/09/26 06:41:51;;;;;;;11.05;6.93;;;;;;;13.19;100.00;101859.38;5073773;28;20068;-70
2023/09/26 06:44:17;;;;;;;12.63;5.93;;;;;;;13.34;100.00;101861.81;5073779;28;20412;-69
2023/09/26 06:46:42;;;;;;;8.38;6.72;;;;;;;13.25;100.00;101869.38;5074318;28;20028;-70
2023/09/26 06:49:07;;;;;;;12.63;7.05;;;;;;;13.27;100.00;101865.41;5073847;28;20029;-69
2023/09/26 06:51:33;;;;;;;11.20;7.07;;;;;;;13.31;100.00;101868.50;5067763;28;20032;-71
2023/09/26 06:53:59;;;;;;;14.70;7.50;;;;;;;13.33;100.00;101868.28;5073988;28;20391;-69
2023/09/26 06:56:25;;;;;;;11.48;7.50;;;;;;;13.38;100.00;101876.66;5055984;28;20353;-70
2023/09/26 06:58:50;;;;;;;12.80;7.90;;;;;;;13.37;100.00;101883.13;5074061;28;20058;-69
2023/09/26 07:01:17;;;;;;;15.90;7.82;;;;;;;13.37;100.00;101877.69;5071785;28;20112;-69
2023/09/26 07:03:43;;;;;;;9.35;7.20;;;;;;;13.44;100.00;101864.91;5071912;28;20036;-70
2023/09/26 07:06:10;;;;;;;12.25;7.40;;;;;;;13.42;100.00;101880.59;5073998;28;20121;-71
2023/09/26 07:08:37;;;;;;;8.73;6.70;;;;;;;13.48;100.00;101885.16;5072422;28;20107;-69
2023/09/26 07:11:03;;;;;;;10.57;6.97;;;;;;;13.48;100.00;101882.44;5071019;28;20032;-68
2023/09/26 07:13:29;;;;;;;10.38;6.82;;;;;;;13.53;100.00;101882.63;5072749;28;20024;-69
2023/09/26 07:15:59;;;;;;;11.20;6.32;;;;;;;13.60;100.00;101882.56;5073713;28;20419;-69
2023/09/26 07:18:24;;;;;;;8.77;6.30;;;;;;;13.70;100.00;101879.38;5055547;28;20029;-69
2023/09/26 07:20:50;;;;;;;9.93;6.47;;;;;;;13.73;100.00;101871.59;5055793;28;20556;-70
2023/09/26 07:23:15;;;;;;;12.55;6.18;;;;;;;13.75;100.00;101874.09;5060308;28;20033;-68
2023/09/26 07:25:40;;;;;;;8.50;6.00;;;;;;;13.79;100.00;101876.13;5053382;28;20057;-68
2023/09/26 07:28:06;;;;;;;9.80;5.97;;;;;;;13.86;100.00;101870.66;5055799;28;20025;-67
2023/09/26 07:30:31;;;;;;;8.25;5.50;;;;;;;13.93;100.00;101870.59;5069331;28;20522;-66
2023/09/26 07:32:56;;;;;;;8.13;5.60;;;;;;;13.99;100.00;101875.16;5073092;28;20118;-68
2023/09/26 07:35:23;;;;;;;8.63;5.45;;;;;;;14.03;100.00;101875.56;5073244;28;20039;-69
2023/09/26 07:37:48;;;;;;;13.95;6.38;;;;;;;14.12;100.00;101879.66;5073394;28;20071;-69
2023/09/26 07:40:13;;;;;;;11.40;5.75;;;;;;;14.22;100.00;101866.38;5055682;28;20470;-69
2023/09/26 07:42:40;;;;;;;6.93;5.88;;;;;;;14.21;100.00;101867.41;5081839;28;20356;-68
2023/09/26 07:45:06;;;;;;;11.52;6.22;;;;;;;14.24;100.00;101866.97;5093518;28;20024;-70
2023/09/26 07:47:31;;;;;;;11.07;6.28;;;;;;;14.27;100.00;101871.97;5063148;28;20025;-69
2023/09/26 07:49:56;;;;;;;16.70;5.50;;;;;;;14.31;100.00;101878.63;5053911;28;20029;-69
2023/09/26 07:52:26;;;;;;;8.82;5.63;;;;;;;14.32;100.00;101869.38;5053087;28;20044;-71
2023/09/26 07:54:51;;;;;;;10.25;5.75;;;;;;;14.38;100.00;101869.56;5053005;28;20115;-70
2023/09/26 07:57:16;;;;;;;10.85;6.30;;;;;;;14.39;100.00;101874.78;5052940;28;20143;-69
2023/09/26 07:59:42;;;;;;;12.85;6.47;;;;;;;14.45;100.00;101871.16;5053644;28;20101;-69
2023/09/26 08:02:07;;;;;;;12.13;6.38;;;;;;;14.54;100.00;101871.69;5057898;28;20083;-69
2023/09/26 08:04:32;;;;;;;13.77;6.03;;;;;;;14.58;100.00;101872.88;5072479;28;20041;-70
2023/09/26 08:06:58;;;;;;;10.70;6.05;;;;;;;14.62;100.00;101868.69;5072543;28;20489;-71
2023/09/26 08:09:23;;;;;;;9.88;6.20;;;;;;;14.70;100.00;101870.25;5070103;28;20035;-71
2023/09/26 08:11:48;;;;;;;16.25;5.78;;;;;;;14.80;100.00;101858.84;5072717;28;20029;-71
2023/09/26 08:14:14;;;;;;;12.05;5.82;;;;;;;14.83;100.00;101847.50;5067712;28;20024;-69
2023/09/26 08:16:39;;;;;;;12.07;5.65;;;;;;;14.90;100.00;101848.25;5051255;28;20094;-73
2023/09/26 08:19:05;;;;;;;16.85;6.80;;;;;;;14.91;100.00;101857.25;5071555;28;20482;-71
2023/09/26 08:21:30;;;;;;;11.10;6.68;;;;;;;14.95;100.00;101863.91;5054451;28;20085;-68
2023/09/26 08:23:56;;;;;;;12.85;6.07;;;;;;;15.00;100.00;101861.31;5072588;28;20031;-73
2023/09/26 08:26:21;;;;;;;12.10;6.18;;;;;;;15.05;100.00;101853.25;5039047;28;20032;-69
2023/09/26 08:28:47;;;;;;;11.52;6.15;;;;;;;15.12;100.00;101856.72;5062091;28;20170;-72
2023/09/26 08:31:15;;;;;;;10.98;5.75;;;;;;;15.20;100.00;101864.59;5052410;28;20028;-72
2023/09/26 08:33:44;;;;;;;10.95;5.72;;;;;;;15.32;100.00;101856.44;5065315;28;20032;-75
2023/09/26 08:36:17;;;;;;;10.88;5.20;;;;;;;15.33;100.00;101863.56;5053687;28;20044;-71
2023/09/26 08:38:47;;;;;;;7.22;4.70;;;;;;;15.42;100.00;101864.91;5062161;28;20033;-72
2023/09/26 08:41:15;;;;;;;9.07;5.00;;;;;;;15.49;100.00;101866.69;5069121;28;20060;-71
2023/09/26 08:43:41;;;;;;;9.93;4.57;;;;;;;15.58;100.00;101859.88;5057403;28;20072;-73
2023/09/26 08:46:07;;;;;;;9.65;4.50;;;;;;;15.69;100.00;101850.84;5034380;28;20487;-73
2023/09/26 08:48:33;;;;;;;8.73;4.10;;;;;;;15.74;100.00;101853.69;5033751;28;20033;-73
2023/09/26 08:50:59;;;;;;;7.70;4.60;;;;;;;15.83;100.00;101851.50;5051953;28;20029;-72
2023/09/26 08:53:25;;;;;;;8.18;4.75;;;;;;;15.87;100.00;101857.34;5034061;28;20036;-72
2023/09/26 08:55:51;;;;;;;8.48;4.55;;;;;;;15.91;100.00;101848.44;5033867;28;20429;-72
2023/09/26 08:58:17;;;;;;;8.82;4.25;;;;;;;15.95;100.00;101854.22;5071714;28;20066;-72
2023/09/26 09:00:43;;;;;;;6.80;4.15;;;;;;;16.03;100.00;101853.06;5054108;28;20083;-72
2023/09/26 09:03:08;;;;;;;7.45;3.90;;;;;;;16.12;100.00;101849.75;5052311;28;20041;-73
2023/09/26 09:05:34;;;;;;;5.85;3.97;;;;;;;16.20;100.00;101843.09;5051989;28;20534;-72
2023/09/26 09:07:59;;;;;;;7.35;3.83;;;;;;;16.33;100.00;101838.44;5052202;28;20029;-72
2023/09/26 09:10:24;;;;;;;6.55;3.72;;;;;;;16.35;100.00;101842.59;5070348;28;20511;-73
2023/09/26 09:13:04;;;;;;;8.45;3.80;;;;;;;16.42;100.00;101837.81;5111493;27;1229321;-73
2023/09/26 09:15:30;;;;;;;4.95;3.25;;;;;;;16.60;100.00;101845.03;5122992;28;20110;-73
2023/09/26 09:17:56;;;;;;;8.45;3.70;;;;;;;16.64;100.00;101846.22;5114683;28;20036;-73
2023/09/26 09:20:33;;;;;;;4.70;3.95;;;;;;;16.71;100.00;101859.72;5116469;28;20097;-73
2023/09/26 09:23:06;;;;;;;7.40;3.60;;;;;;;16.80;100.00;101865.66;5110023;28;20032;-73
2023/09/26 09:25:36;;;;;;;6.85;3.45;;;;;;;16.91;100.00;101864.00;5116636;28;20106;-73
2023/09/26 09:28:04;;;;;;;7.07;3.70;;;;;;;16.90;100.00;101862.34;5130648;27;20023;-73
2023/09/26 09:30:37;;;;;;;5.88;3.70;;;;;;;16.94;100.00;101860.75;5125905;28;20151;-73
2023/09/26 09:33:03;;;;;;;6.43;3.80;;;;;;;17.05;100.00;101854.44;5130352;28;20475;-73
2023/09/26 09:35:29;;;;;;;7.90;3.67;;;;;;;17.18;100.00;101853.28;5130409;27;20032;-73
2023/09/26 09:37:56;;;;;;;8.60;3.65;;;;;;;17.16;100.00;101847.25;5129131;28;20405;-72
2023/09/26 09:40:24;;;;;;;5.10;3.30;;;;;;;17.23;100.00;101847.13;5117766;27;20028;-73
2023/09/26 09:42:50;;;;;;;5.72;3.22;;;;;;;17.35;100.00;101850.63;5110259;28;20076;-73
2023/09/26 09:45:19;;;;;;;5.35;3.08;;;;;;;17.47;100.00;101834.13;5105128;28;20031;-73
2023/09/26 09:47:45;;;;;;;7.20;3.42;;;;;;;17.44;100.00;101823.69;5109674;28;20024;-72
2023/09/26 09:50:12;;;;;;;5.95;3.35;;;;;;;17.52;100.00;101824.09;5109705;28;20463;-72
2023/09/26 09:52:43;;;;;;;4.97;2.97;;;;;;;17.61;100.00;101829.16;5109388;28;20080;-72
2023/09/26 09:55:12;;;;;;;;;;;;;;;17.60;100.00;101824.75;5110265;28;20061;-71
2023/09/26 09:57:45;;;;;;;4.97;2.90;;;;;;;17.64;100.00;101825.94;5109424;28;20024;-72
2023/09/26 10:00:12;;;;;;;6.90;3.30;;;;;;;17.65;100.00;101833.91;5108761;28;20386;-72
2023/09/26 10:02:37;;;;;;;4.65;2.83;;;;;;;17.65;100.00;101833.06;5105447;28;20028;-73
2023/09/26 10:05:06;;;;;;;6.05;3.25;;;;;;;17.71;100.00;101834.81;5107348;28;20119;-72
2023/09/26 10:07:33;;;;;;;5.95;3.00;;;;;;;17.78;100.00;101840.94;5107613;28;20031;-73
2023/09/26 10:10:00;;;;;;;4.30;2.45;;;;;;;17.80;100.00;101827.84;5109329;28;20103;-72
2023/09/26 10:12:27;;;;;;;7.07;3.10;;;;;;;17.84;100.00;101830.91;5109026;28;20044;-73
2023/09/26 10:14:55;;;;;;;7.63;3.28;;;;;;;17.91;100.00;101841.72;5109246;28;20123;-72
2023/09/26 10:17:20;;;;;;;8.10;3.28;;;;;;;17.88;100.00;101834.81;5107357;28;20032;-75
2023/09/26 10:19:47;;;;;;;5.28;2.80;;;;;;;17.86;100.00;101837.78;5108891;28;20034;-74
2023/09/26 10:22:13;;;;;;;6.28;3.00;;;;;;;17.85;100.00;101827.91;5108440;28;20028;-71
2023/09/26 10:24:46;;;;;;;7.57;3.30;;;;;;;17.92;100.00;101835.16;5094618;28;20077;-71
2023/09/26 10:27:11;;;;;;;6.35;2.97;;;;;;;17.87;100.00;101830.41;5093018;28;20113;-71
2023/09/26 10:29:38;;;;;;;7.55;3.35;;;;;;;17.91;100.00;101826.13;5094165;28;20040;-72
2023/09/26 10:32:06;;;;;;;9.88;3.67;;;;;;;18.00;100.00;101829.25;5085185;28;20443;-72
2023/09/26 10:34:37;;;;;;;7.00;3.30;;;;;;;18.04;100.00;101841.34;5074515;28;20028;-73
2023/09/26 10:37:07;;;;;;;7.72;3.22;;;;;;;18.13;100.00;101828.06;5074991;28;20031;-71
2023/09/26 10:39:38;;;;;;;6.22;3.08;;;;;;;18.14;100.00;101824.25;5074471;28;20512;-71
2023/09/26 10:42:12;;;;;;;5.15;2.85;;;;;;;18.05;100.00;101818.38;5074833;28;20028;-71
2023/09/26 10:44:43;;;;;;;4.88;2.70;;;;;;;18.11;100.00;101816.53;5074553;28;20028;-70
2023/09/26 10:47:11;;;;;;;6.40;3.05;;;;;;;18.10;100.00;101813.00;5085617;28;20417;-73
2023/09/26 10:49:37;;;;;;;6.63;3.08;;;;;;;18.15;100.00;101815.78;5094231;28;20192;-74
2023/09/26 10:52:02;;;;;;;5.80;3.17;;;;;;;18.14;100.00;101825.06;5084611;28;20065;-71
2023/09/26 10:54:30;;;;;;;8.18;3.30;;;;;;;18.18;100.00;101819.94;5074519;28;20020;-73
2023/09/26 10:56:59;;;;;;;6.35;3.30;;;;;;;18.25;100.00;101812.34;5089628;28;20024;-79
2023/09/26 10:59:31;;;;;;;5.15;3.60;;;;;;;18.26;100.00;101804.97;5094703;28;20111;-75
2023/09/26 11:01:58;;;;;;;7.65;3.22;;;;;;;18.30;100.00;101811.59;5082842;28;20040;-74
2023/09/26 11:04:31;;;;;;;6.57;3.70;;;;;;;18.36;100.00;101814.16;5074263;28;20456;-81
2023/09/26 11:06:58;;;;;;;5.97;3.20;;;;;;;18.45;100.00;101813.69;5072728;28;20063;-82
2023/09/26 11:09:25;;;;;;;7.25;3.47;;;;;;;18.44;100.00;101823.84;5085223;28;20032;-75